Accueil
METAR-TAF:

METAR-TAF

Aéroports :

Base aérienne de Lechfeld

Lechfeld, Allemagne

latitude: 48-11N, longitude: 010-52E, altitude: 555 m

Observation

Le bulletin a été fait il y a 45 minutes, à 00:20 UTC
Vent 14 kt de sud-ouest avec des rafales jusqu'à 24 kt
Température 2°C
Humidité 87%
Pression 1004 hPa
Visibilité 10 km ou plus
Nuages épars à une hauteur de 1000 ft
Nuages fragmentés à une hauteur de 20000 ft

METAR: ETSL 180020Z 23014G24KT 9999 SCT010 BKN200 02/00 Q1004 BLU+

Heure: 02:05 (01:05 UTC)


TAF: absent

Observations et prévisions météorologiques de plus de 4000 aéroports (messages METAR et TAF).

Les stations disponibles sont représentées par des disques jaunes et rouges sur la carte.

Passer la souris dessus pour voir le nom de la station.

Cliquer dessus pour voir les observations et prévisions météorologiques.

Pour changer de carte: cliquez sur les boutons verts avec une croix noire pour zoomer, sur le bouton vert avec un tiret pour effectuer un zoom arrière, ou sur les flèches vertes pour les cartes adjacentes.


METAR-TAF: